Dew Point Data


Current

Temp 51.0 F. Dew Point 48.9 F.


Dew Point Comfort Scale

dewpoints

Date, Time Temperature Dew Point
Fri Nov 26 17:08:05 2021 52.0 F. 30.9 F.
Fri Nov 26 18:08:04 2021 52.0 F. 30.9 F.
Fri Nov 26 19:08:04 2021 52.0 F. 30.9 F.
Fri Nov 26 20:08:05 2021 52.0 F. 30.9 F.
Fri Nov 26 21:08:05 2021 52.0 F. 31.9 F.
Fri Nov 26 22:08:05 2021 52.0 F. 31.3 F.
Fri Nov 26 23:08:05 2021 51.3 F. 30.0 F.
Sat Nov 27 00:08:04 2021 52.0 F. 30.9 F.
Sat Nov 27 01:08:05 2021 51.0 F. 30.9 F.
Sat Nov 27 02:08:04 2021 52.9 F. 30.9 F.
Sat Nov 27 03:08:04 2021 52.0 F. 30.9 F.
Mon Nov 29 22:43:42 2021 47.0 F. 34.0 F.
Mon Nov 29 22:47:45 2021 47.0 F. 34.0 F.
Mon Nov 29 23:08:05 2021 47.0 F. 34.0 F.
Tue Nov 30 00:08:04 2021 47.0 F. 34.0 F.
Tue Nov 30 01:08:04 2021 47.0 F. 34.0 F.
Tue Nov 30 02:08:04 2021 47.0 F. 34.0 F.
Tue Nov 30 03:08:05 2021 47.0 F. 34.0 F.
Tue Nov 30 04:08:04 2021 47.0 F. 34.0 F.
Tue Nov 30 05:08:04 2021 47.0 F. 34.0 F.
Tue Nov 30 06:08:05 2021 47.0 F. 34.0 F.
Tue Nov 30 07:08:05 2021 47.0 F. 34.0 F.
Tue Nov 30 08:08:04 2021 36.0 F. 34.0 F.
Tue Nov 30 09:08:05 2021 36.0 F. 34.0 F.
Tue Nov 30 10:08:05 2021 53.0 F. 39.0 F.
Tue Nov 30 11:08:05 2021 53.0 F. 39.0 F.
Tue Nov 30 12:08:05 2021 57.0 F. 39.0 F.
Tue Nov 30 13:08:04 2021 58.0 F. 37.9 F.
Tue Nov 30 14:08:04 2021 58.0 F. 37.9 F.
Tue Nov 30 15:08:04 2021 57.0 F. 39.0 F.
Tue Nov 30 16:08:04 2021 55.0 F. 39.0 F.
Tue Nov 30 17:08:05 2021 55.0 F. 39.0 F.
Tue Nov 30 18:08:05 2021 46.0 F. 37.0 F.
Tue Nov 30 19:08:04 2021 46.0 F. 37.0 F.
Tue Nov 30 20:08:04 2021 41.0 F. 37.0 F.
Tue Nov 30 21:08:05 2021 40.0 F. 36.0 F.
Tue Nov 30 22:08:04 2021 40.0 F. 36.0 F.
Tue Nov 30 23:08:04 2021 41.0 F. 37.9 F.
Wed Dec 1 00:08:05 2021 41.0 F. 37.9 F.
Wed Dec 1 01:08:05 2021 43.0 F. 37.9 F.
Wed Dec 1 02:08:04 2021 43.0 F. 37.9 F.
Wed Dec 1 03:08:04 2021 43.0 F. 37.9 F.
Wed Dec 1 04:08:05 2021 45.0 F. 39.9 F.
Wed Dec 1 05:08:05 2021 46.0 F. 39.9 F.
Wed Dec 1 06:08:05 2021 46.0 F. 39.9 F.
Wed Dec 1 07:08:05 2021 49.0 F. 41.0 F.
Wed Dec 1 08:08:05 2021 50.0 F. 43.0 F.
Wed Dec 1 09:08:05 2021 52.0 F. 44.1 F.
Wed Dec 1 10:08:05 2021 50.0 F. 46.9 F.
Wed Dec 1 11:08:05 2021 51.0 F. 48.9 F.